createdAt,value
2023-02-16T00:00:14.564Z,1021.02
2023-02-16T00:01:14.516Z,1021.07
2023-02-16T00:02:14.568Z,1021.06
2023-02-16T00:03:14.536Z,1021.03
2023-02-16T00:04:14.490Z,1021.00
2023-02-16T00:05:14.468Z,1021.02
2023-02-16T00:06:14.493Z,1021.03
2023-02-16T00:07:14.444Z,1021.09
2023-02-16T00:08:14.442Z,1021.10
2023-02-16T00:09:14.414Z,1021.12
2023-02-16T00:10:14.477Z,1021.12
2023-02-16T00:11:14.405Z,1021.14
2023-02-16T00:12:15.363Z,1021.10
2023-02-16T00:13:14.387Z,1021.11
2023-02-16T00:14:14.377Z,1021.11
2023-02-16T00:15:14.358Z,1021.10
2023-02-16T00:16:14.595Z,1021.08
2023-02-16T00:17:14.377Z,1021.07
2023-02-16T00:18:14.326Z,1021.08
2023-02-16T00:19:14.305Z,1021.05
2023-02-16T00:20:14.315Z,1021.06
2023-02-16T00:21:14.291Z,1021.04
2023-02-16T00:22:15.279Z,1021.03
2023-02-16T00:23:14.265Z,1021.10
2023-02-16T00:24:14.263Z,1021.08
2023-02-16T00:25:14.255Z,1021.02
2023-02-16T00:26:14.231Z,1021.06
2023-02-16T00:27:14.308Z,1020.97
2023-02-16T00:28:14.235Z,1020.99
2023-02-16T00:29:14.239Z,1020.98
2023-02-16T00:30:14.278Z,1021.00
2023-02-16T00:31:14.244Z,1021.03
2023-02-16T00:32:14.303Z,1021.00
2023-02-16T00:33:14.161Z,1021.01
2023-02-16T00:34:14.160Z,1020.97
2023-02-16T00:35:14.177Z,1020.91
2023-02-16T00:36:14.148Z,1020.97
2023-02-16T00:37:14.120Z,1020.93
2023-02-16T00:38:14.107Z,1020.93
2023-02-16T00:39:14.107Z,1020.94
2023-02-16T00:40:14.088Z,1020.87
2023-02-16T00:41:14.114Z,1020.98
2023-02-16T00:42:14.077Z,1020.93
2023-02-16T00:43:14.043Z,1020.90
2023-02-16T00:44:14.048Z,1020.96
2023-02-16T00:45:14.035Z,1020.93
2023-02-16T00:46:14.064Z,1020.94
2023-02-16T00:47:14.049Z,1020.94
2023-02-16T00:48:14.004Z,1020.96
2023-02-16T00:49:13.988Z,1020.91
2023-02-16T00:50:13.990Z,1020.93
2023-02-16T00:51:25.412Z,1020.88
2023-02-16T00:52:14.971Z,1020.87
2023-02-16T00:53:13.936Z,1020.85
2023-02-16T00:54:13.936Z,1020.80
2023-02-16T00:55:13.952Z,1020.83
2023-02-16T00:56:13.916Z,1020.82
2023-02-16T00:57:13.889Z,1020.88
2023-02-16T00:58:13.939Z,1020.83
2023-02-16T00:59:13.870Z,1020.88
2023-02-16T01:00:13.874Z,1020.86
2023-02-16T01:01:13.874Z,1020.88
2023-02-16T01:02:13.847Z,1020.85
2023-02-16T01:03:13.831Z,1020.84
2023-02-16T01:04:13.873Z,1020.88
2023-02-16T01:05:13.818Z,1020.87
2023-02-16T01:06:13.814Z,1020.90
2023-02-16T01:07:13.787Z,1020.88
2023-02-16T01:08:13.791Z,1020.87
2023-02-16T01:09:13.788Z,1020.93
2023-02-16T01:10:13.769Z,1020.90
2023-02-16T01:11:13.738Z,1020.83
2023-02-16T01:12:13.733Z,1020.83
2023-02-16T01:13:13.752Z,1020.88
2023-02-16T01:14:13.718Z,1020.88
2023-02-16T01:15:13.730Z,1020.93
2023-02-16T01:16:13.737Z,1020.95
2023-02-16T01:17:13.700Z,1020.93
2023-02-16T01:18:13.702Z,1020.86
2023-02-16T01:19:13.661Z,1020.84
2023-02-16T01:20:13.645Z,1020.84
2023-02-16T01:21:13.641Z,1020.85
2023-02-16T01:22:13.630Z,1020.82
2023-02-16T01:23:13.709Z,1020.83
2023-02-16T01:24:13.671Z,1020.86
2023-02-16T01:25:13.600Z,1020.88
2023-02-16T01:26:13.595Z,1020.88
2023-02-16T01:27:13.583Z,1020.90
2023-02-16T01:28:13.575Z,1020.86
2023-02-16T01:29:13.561Z,1020.79
2023-02-16T01:30:13.554Z,1020.83
2023-02-16T01:31:13.649Z,1020.79
2023-02-16T01:32:13.701Z,1020.80
2023-02-16T01:33:13.527Z,1020.86
2023-02-16T01:34:13.508Z,1020.77
2023-02-16T01:35:13.474Z,1020.84
2023-02-16T01:36:13.528Z,1020.80
2023-02-16T01:37:13.466Z,1020.75
2023-02-16T01:38:13.485Z,1020.75
2023-02-16T01:39:13.466Z,1020.79
2023-02-16T01:40:13.425Z,1020.82
2023-02-16T01:41:13.404Z,1020.82
2023-02-16T01:42:13.455Z,1020.79
2023-02-16T01:43:13.374Z,1020.77
2023-02-16T01:44:13.380Z,1020.75
2023-02-16T01:45:13.385Z,1020.78
2023-02-16T01:46:13.381Z,1020.69
2023-02-16T01:47:13.346Z,1020.67
2023-02-16T01:48:13.365Z,1020.67
2023-02-16T01:49:13.346Z,1020.63
2023-02-16T01:50:13.306Z,1020.70
2023-02-16T01:51:13.296Z,1020.60
2023-02-16T01:52:13.309Z,1020.70
2023-02-16T01:53:13.313Z,1020.66
2023-02-16T01:54:13.271Z,1020.76
2023-02-16T01:55:13.247Z,1020.81
2023-02-16T01:56:13.262Z,1020.78
2023-02-16T01:57:13.232Z,1020.82
2023-02-16T01:58:13.252Z,1020.85
2023-02-16T01:59:13.212Z,1020.84
2023-02-16T02:00:13.207Z,1020.82
2023-02-16T02:01:13.228Z,1020.78
2023-02-16T02:02:13.181Z,1020.79
2023-02-16T02:03:13.232Z,1020.79
2023-02-16T02:04:13.167Z,1020.81
2023-02-16T02:05:13.180Z,1020.69
2023-02-16T02:06:13.184Z,1020.76
2023-02-16T02:07:13.182Z,1020.74
2023-02-16T02:08:13.162Z,1020.76
2023-02-16T02:09:13.131Z,1020.74
2023-02-16T02:10:13.117Z,1020.74
2023-02-16T02:11:13.149Z,1020.72
2023-02-16T02:12:13.073Z,1020.72
2023-02-16T02:13:13.083Z,1020.73
2023-02-16T02:14:13.051Z,1020.71
2023-02-16T02:15:13.088Z,1020.75
2023-02-16T02:16:13.048Z,1020.71
2023-02-16T02:17:13.022Z,1020.73
2023-02-16T02:18:13.021Z,1020.71
2023-02-16T02:19:12.993Z,1020.64
2023-02-16T02:20:13.013Z,1020.60
2023-02-16T02:21:12.991Z,1020.66
2023-02-16T02:22:12.984Z,1020.65
2023-02-16T02:23:12.957Z,1020.60
2023-02-16T02:24:15.937Z,1020.59
2023-02-16T02:25:12.936Z,1020.61
2023-02-16T02:26:12.904Z,1020.61
2023-02-16T02:27:12.950Z,1020.60
2023-02-16T02:28:13.054Z,1020.54
2023-02-16T02:29:12.890Z,1020.57
2023-02-16T02:30:12.932Z,1020.63
2023-02-16T02:31:12.950Z,1020.61
2023-02-16T02:32:13.371Z,1020.62
2023-02-16T02:33:12.869Z,1020.67
2023-02-16T02:34:12.912Z,1020.63
2023-02-16T02:35:12.836Z,1020.57
2023-02-16T02:36:12.920Z,1020.56
2023-02-16T02:37:12.984Z,1020.55
2023-02-16T02:38:12.830Z,1020.53
2023-02-16T02:39:12.807Z,1020.54
2023-02-16T02:40:12.781Z,1020.48
2023-02-16T02:41:13.056Z,1020.49
2023-02-16T02:42:12.736Z,1020.46
2023-02-16T02:43:12.876Z,1020.43
2023-02-16T02:44:12.752Z,1020.45
2023-02-16T02:45:12.718Z,1020.44
2023-02-16T02:46:12.741Z,1020.47
2023-02-16T02:47:13.183Z,1020.48
2023-02-16T02:48:13.333Z,1020.40
2023-02-16T02:49:12.682Z,1020.37
2023-02-16T02:50:12.969Z,1020.33
2023-02-16T02:51:13.044Z,1020.38
2023-02-16T02:52:12.897Z,1020.32
2023-02-16T02:53:12.703Z,1020.31
2023-02-16T02:54:12.598Z,1020.32
2023-02-16T02:55:12.605Z,1020.31
2023-02-16T02:56:12.579Z,1020.26
2023-02-16T02:57:13.623Z,1020.24
2023-02-16T02:58:12.560Z,1020.21
2023-02-16T02:59:13.369Z,1020.24
2023-02-16T03:00:12.632Z,1020.24
2023-02-16T03:01:12.543Z,1020.21
2023-02-16T03:02:13.027Z,1020.15
2023-02-16T03:03:12.514Z,1020.20
2023-02-16T03:04:12.522Z,1020.11
2023-02-16T03:05:12.521Z,1020.14
2023-02-16T03:06:12.543Z,1020.16
2023-02-16T03:07:12.513Z,1020.21
2023-02-16T03:08:12.449Z,1020.18
2023-02-16T03:09:12.456Z,1020.10
2023-02-16T03:10:12.524Z,1020.14
2023-02-16T03:11:13.413Z,1020.11
2023-02-16T03:12:12.412Z,1020.10
2023-02-16T03:13:12.438Z,1020.05
2023-02-16T03:14:12.380Z,1020.08
2023-02-16T03:15:12.365Z,1020.06
2023-02-16T03:16:12.592Z,1020.10
2023-02-16T03:17:12.473Z,1020.09
2023-02-16T03:18:12.357Z,1020.07
2023-02-16T03:19:12.329Z,1020.00
2023-02-16T03:20:12.326Z,1020.07
2023-02-16T03:21:12.333Z,1020.08
2023-02-16T03:22:12.314Z,1020.02
2023-02-16T03:23:12.287Z,1019.99
2023-02-16T03:24:12.266Z,1020.04
2023-02-16T03:25:12.264Z,1020.03
2023-02-16T03:26:12.438Z,1020.05
2023-02-16T03:27:12.271Z,1020.03
2023-02-16T03:28:12.255Z,1020.07
2023-02-16T03:29:13.173Z,1020.06
2023-02-16T03:30:12.636Z,1020.05
2023-02-16T03:31:12.298Z,1020.03
2023-02-16T03:32:12.245Z,1019.98
2023-02-16T03:33:13.621Z,1019.98
2023-02-16T03:34:12.172Z,1019.95
2023-02-16T03:35:12.154Z,1020.00
2023-02-16T03:36:12.176Z,1019.97
2023-02-16T03:37:12.123Z,1019.96
2023-02-16T03:38:12.117Z,1019.99
2023-02-16T03:39:12.610Z,1020.00
2023-02-16T03:40:12.374Z,1019.98
2023-02-16T03:41:13.575Z,1019.99
2023-02-16T03:42:12.081Z,1020.02
2023-02-16T03:43:12.064Z,1020.00
2023-02-16T03:44:12.045Z,1020.00
2023-02-16T03:45:12.038Z,1020.11
2023-02-16T03:46:12.122Z,1020.12
2023-02-16T03:47:12.036Z,1020.08
2023-02-16T03:48:11.988Z,1020.07
2023-02-16T03:49:12.023Z,1020.04
2023-02-16T03:50:12.018Z,1019.97
2023-02-16T03:51:11.976Z,1019.95
2023-02-16T03:52:11.984Z,1020.05
2023-02-16T03:53:11.999Z,1020.09
2023-02-16T03:54:11.959Z,1020.07
2023-02-16T03:55:11.933Z,1020.10
2023-02-16T03:56:11.931Z,1020.08
2023-02-16T03:57:11.917Z,1020.13
2023-02-16T03:58:11.967Z,1020.14
2023-02-16T03:59:11.877Z,1020.14
2023-02-16T04:00:11.888Z,1020.09
2023-02-16T04:01:11.853Z,1020.14
2023-02-16T04:02:11.859Z,1020.15
2023-02-16T04:03:11.852Z,1020.09
2023-02-16T04:04:11.865Z,1020.12
2023-02-16T04:05:11.844Z,1020.10
2023-02-16T04:06:11.802Z,1020.07
2023-02-16T04:07:11.808Z,1019.97
2023-02-16T04:08:12.748Z,1019.94
2023-02-16T04:09:11.772Z,1019.89
2023-02-16T04:10:12.444Z,1019.89
2023-02-16T04:11:11.742Z,1019.86
2023-02-16T04:12:11.744Z,1019.88
2023-02-16T04:13:11.732Z,1019.92
2023-02-16T04:14:11.713Z,1019.95
2023-02-16T04:15:11.739Z,1019.84
2023-02-16T04:16:11.757Z,1019.93
2023-02-16T04:17:11.674Z,1019.94
2023-02-16T04:18:11.669Z,1019.95
2023-02-16T04:19:11.671Z,1019.92
2023-02-16T04:20:11.644Z,1019.97
2023-02-16T04:21:11.659Z,1019.95
2023-02-16T04:22:11.626Z,1019.99
2023-02-16T04:23:11.723Z,1019.93
2023-02-16T04:24:11.612Z,1019.96
2023-02-16T04:25:11.586Z,1019.93
2023-02-16T04:26:11.580Z,1020.04
2023-02-16T04:27:11.566Z,1019.99
2023-02-16T04:28:11.603Z,1020.05
2023-02-16T04:29:11.565Z,1020.01
2023-02-16T04:30:11.598Z,1020.01
2023-02-16T04:31:11.679Z,1019.97
2023-02-16T04:32:11.631Z,1019.99
2023-02-16T04:33:11.966Z,1019.99
2023-02-16T04:34:11.508Z,1019.95
2023-02-16T04:35:11.481Z,1019.98
2023-02-16T04:36:11.461Z,1020.03
2023-02-16T04:37:11.462Z,1020.02
2023-02-16T04:38:11.444Z,1020.06
2023-02-16T04:39:11.502Z,1020.07
2023-02-16T04:40:11.436Z,1020.09
2023-02-16T04:41:11.430Z,1020.04
2023-02-16T04:42:11.404Z,1020.03
2023-02-16T04:43:11.393Z,1019.94
2023-02-16T04:44:11.374Z,1020.03
2023-02-16T04:45:11.498Z,1020.06
2023-02-16T04:46:11.400Z,1020.09
2023-02-16T04:47:11.404Z,1020.06
2023-02-16T04:48:11.325Z,1020.06
2023-02-16T04:49:11.330Z,1020.11
2023-02-16T04:50:11.324Z,1020.12
2023-02-16T04:51:11.294Z,1020.13
2023-02-16T04:52:11.285Z,1020.15
2023-02-16T04:53:11.295Z,1020.07
2023-02-16T04:54:11.279Z,1020.02
2023-02-16T04:55:11.288Z,1020.06
2023-02-16T04:56:11.243Z,1020.02
2023-02-16T04:57:11.228Z,1019.94
2023-02-16T04:58:12.181Z,1019.92
2023-02-16T04:59:11.236Z,1019.96
2023-02-16T05:00:11.189Z,1019.89
2023-02-16T05:01:11.238Z,1019.94
2023-02-16T05:02:11.158Z,1019.94
2023-02-16T05:03:11.170Z,1019.93
2023-02-16T05:04:11.200Z,1019.96
2023-02-16T05:05:11.162Z,1020.01
2023-02-16T05:06:11.158Z,1020.03
2023-02-16T05:07:11.119Z,1019.99
2023-02-16T05:08:11.102Z,1020.09
2023-02-16T05:09:11.098Z,1020.03
2023-02-16T05:10:11.084Z,1020.05
2023-02-16T05:11:11.072Z,1019.97
2023-02-16T05:12:11.084Z,1019.99
2023-02-16T05:13:11.062Z,1019.98
2023-02-16T05:14:11.028Z,1019.97
2023-02-16T05:15:11.030Z,1019.92
2023-02-16T05:16:11.063Z,1019.97
2023-02-16T05:17:11.025Z,1019.96
2023-02-16T05:18:11.006Z,1019.98
2023-02-16T05:19:10.982Z,1019.97
2023-02-16T05:20:10.960Z,1019.98
2023-02-16T05:21:10.987Z,1019.95
2023-02-16T05:22:10.948Z,1019.94
2023-02-16T05:23:10.971Z,1019.96
2023-02-16T05:24:10.920Z,1019.96
2023-02-16T05:25:10.914Z,1019.96
2023-02-16T05:26:10.901Z,1020.03
2023-02-16T05:27:10.896Z,1020.01
2023-02-16T05:28:10.917Z,1020.05
2023-02-16T05:29:10.890Z,1020.03
2023-02-16T05:30:10.903Z,1020.05
2023-02-16T05:31:10.954Z,1019.99
2023-02-16T05:32:10.974Z,1019.96
2023-02-16T05:33:10.835Z,1020.03
2023-02-16T05:34:10.812Z,1020.05
2023-02-16T05:35:10.979Z,1020.06
2023-02-16T05:36:10.808Z,1020.07
2023-02-16T05:37:10.787Z,1020.10
2023-02-16T05:38:10.786Z,1020.04
2023-02-16T05:39:10.769Z,1020.06
2023-02-16T05:40:10.776Z,1020.16
2023-02-16T05:41:10.746Z,1020.12
2023-02-16T05:42:10.735Z,1020.11
2023-02-16T05:43:10.764Z,1020.11
2023-02-16T05:44:10.708Z,1020.19
2023-02-16T05:45:10.728Z,1020.19
2023-02-16T05:46:10.778Z,1020.15
2023-02-16T05:47:10.670Z,1020.13
2023-02-16T05:48:10.660Z,1020.12
2023-02-16T05:49:10.688Z,1020.11
2023-02-16T05:50:10.632Z,1020.03
2023-02-16T05:51:10.630Z,1020.05
2023-02-16T05:52:10.623Z,1020.02
2023-02-16T05:53:10.607Z,1020.03
2023-02-16T05:54:10.667Z,1020.07
2023-02-16T05:55:10.587Z,1020.02
2023-02-16T05:56:10.572Z,1020.04
2023-02-16T05:57:10.562Z,1020.02
2023-02-16T05:58:10.559Z,1020.00
2023-02-16T05:59:10.576Z,1020.02
2023-02-16T06:00:10.539Z,1019.96
2023-02-16T06:01:10.540Z,1020.02
2023-02-16T06:02:10.511Z,1020.03
2023-02-16T06:03:10.501Z,1020.00
2023-02-16T06:04:10.474Z,1020.09
2023-02-16T06:05:10.497Z,1020.04
2023-02-16T06:06:10.464Z,1020.01
2023-02-16T06:07:10.989Z,1020.06
2023-02-16T06:08:10.439Z,1019.99
2023-02-16T06:09:10.460Z,1019.96
2023-02-16T06:10:10.436Z,1019.94
2023-02-16T06:11:10.428Z,1019.85
2023-02-16T06:12:10.418Z,1019.95
2023-02-16T06:13:10.403Z,1019.98
2023-02-16T06:14:10.393Z,1019.93
2023-02-16T06:15:10.361Z,1019.99
2023-02-16T06:16:10.452Z,1019.86
2023-02-16T06:17:10.337Z,1019.91
2023-02-16T06:18:10.333Z,1019.83
2023-02-16T06:19:10.345Z,1019.87
2023-02-16T06:20:11.263Z,1019.85
2023-02-16T06:21:10.298Z,1019.93
2023-02-16T06:22:10.320Z,1019.92
2023-02-16T06:23:10.309Z,1019.96
2023-02-16T06:24:10.268Z,1020.02
2023-02-16T06:25:10.279Z,1020.00
2023-02-16T06:26:10.240Z,1020.05
2023-02-16T06:27:10.231Z,1020.04
2023-02-16T06:28:10.241Z,1020.02
2023-02-16T06:29:10.228Z,1020.03
2023-02-16T06:30:10.337Z,1019.95
2023-02-16T06:31:10.284Z,1020.04
2023-02-16T06:32:11.269Z,1019.98
2023-02-16T06:33:10.161Z,1019.94
2023-02-16T06:34:10.160Z,1019.92
2023-02-16T06:35:10.183Z,1019.93
2023-02-16T06:36:10.152Z,1019.94
2023-02-16T06:37:10.122Z,1019.93
2023-02-16T06:38:10.125Z,1019.93
2023-02-16T06:39:10.119Z,1019.92
2023-02-16T06:40:10.092Z,1019.92
2023-02-16T06:41:10.087Z,1019.91
2023-02-16T06:42:10.113Z,1019.85
2023-02-16T06:43:10.141Z,1019.88
2023-02-16T06:44:10.973Z,1019.89
2023-02-16T06:45:10.032Z,1019.90
2023-02-16T06:46:10.047Z,1019.91
2023-02-16T06:47:10.685Z,1019.96
2023-02-16T06:48:10.035Z,1020.00
2023-02-16T06:49:09.993Z,1020.03
2023-02-16T06:50:09.973Z,1020.07
2023-02-16T06:51:09.952Z,1019.97
2023-02-16T06:52:09.985Z,1020.00
2023-02-16T06:53:10.177Z,1019.97
2023-02-16T06:54:09.923Z,1020.00
2023-02-16T06:55:09.914Z,1020.02
2023-02-16T06:56:10.494Z,1019.99
2023-02-16T06:57:09.939Z,1020.03
2023-02-16T06:58:09.929Z,1019.99
2023-02-16T06:59:10.740Z,1019.98
2023-02-16T07:00:09.864Z,1019.99
2023-02-16T07:01:09.957Z,1019.98
2023-02-16T07:02:09.833Z,1019.95
2023-02-16T07:03:10.137Z,1020.02
2023-02-16T07:04:09.843Z,1019.91
2023-02-16T07:05:10.663Z,1019.87
2023-02-16T07:06:10.166Z,1019.90
2023-02-16T07:07:09.804Z,1019.96
2023-02-16T07:08:09.794Z,1019.93
2023-02-16T07:09:12.608Z,1020.00
2023-02-16T07:10:09.781Z,1019.99
2023-02-16T07:11:09.747Z,1019.95
2023-02-16T07:12:10.285Z,1019.96
2023-02-16T07:13:09.725Z,1019.98
2023-02-16T07:14:10.341Z,1019.93
2023-02-16T07:15:09.698Z,1019.91
2023-02-16T07:16:10.214Z,1019.92
2023-02-16T07:17:09.679Z,1019.88
2023-02-16T07:18:09.671Z,1019.92
2023-02-16T07:19:10.792Z,1019.86
2023-02-16T07:20:09.677Z,1019.79
2023-02-16T07:21:09.630Z,1019.83
2023-02-16T07:22:09.616Z,1019.86
2023-02-16T07:23:09.617Z,1019.79
2023-02-16T07:24:09.985Z,1019.81
2023-02-16T07:25:09.589Z,1019.79
2023-02-16T07:26:09.665Z,1019.79
2023-02-16T07:27:09.569Z,1019.79
2023-02-16T07:28:09.570Z,1019.82
2023-02-16T07:29:09.557Z,1019.80
2023-02-16T07:30:09.953Z,1019.79
2023-02-16T07:31:09.651Z,1019.79
2023-02-16T07:32:09.584Z,1019.77
2023-02-16T07:33:09.524Z,1019.80
2023-02-16T07:34:09.485Z,1019.82
2023-02-16T07:35:09.491Z,1019.84
2023-02-16T07:36:09.492Z,1019.87
2023-02-16T07:37:10.081Z,1019.91
2023-02-16T07:38:09.472Z,1019.96
2023-02-16T07:39:09.460Z,1020.02
2023-02-16T07:40:09.439Z,1020.00
2023-02-16T07:41:10.248Z,1019.99
2023-02-16T07:42:09.479Z,1020.02
2023-02-16T07:43:09.382Z,1019.99
2023-02-16T07:44:09.449Z,1019.93
2023-02-16T07:45:09.368Z,1020.01
2023-02-16T07:46:09.453Z,1020.03
2023-02-16T07:47:09.340Z,1019.99
2023-02-16T07:48:09.340Z,1019.97
2023-02-16T07:49:09.336Z,1020.00
2023-02-16T07:50:09.307Z,1020.00
2023-02-16T07:51:09.289Z,1019.99
2023-02-16T07:52:09.290Z,1019.96
2023-02-16T07:53:11.143Z,1019.95
2023-02-16T07:54:09.291Z,1019.98
2023-02-16T07:55:09.241Z,1019.97
2023-02-16T07:56:10.180Z,1019.99
2023-02-16T07:57:09.220Z,1019.97
2023-02-16T07:58:09.220Z,1020.08
2023-02-16T07:59:09.189Z,1020.04
2023-02-16T08:00:09.202Z,1020.08
2023-02-16T08:01:09.173Z,1020.04
2023-02-16T08:02:09.274Z,1019.96
2023-02-16T08:03:09.292Z,1020.04
2023-02-16T08:04:09.167Z,1020.05
2023-02-16T08:05:09.121Z,1020.07
2023-02-16T08:06:09.136Z,1020.15
2023-02-16T08:07:09.103Z,1020.13
2023-02-16T08:08:09.101Z,1020.12
2023-02-16T08:09:09.115Z,1020.09
2023-02-16T08:10:09.072Z,1020.13
2023-02-16T08:11:09.066Z,1020.07
2023-02-16T08:12:09.544Z,1020.06
2023-02-16T08:13:09.198Z,1020.08
2023-02-16T08:14:09.051Z,1020.07
2023-02-16T08:15:09.046Z,1020.09
2023-02-16T08:16:09.031Z,1020.15
2023-02-16T08:17:09.084Z,1020.09
2023-02-16T08:18:09.167Z,1020.06
2023-02-16T08:19:09.020Z,1020.04
2023-02-16T08:20:08.984Z,1020.07
2023-02-16T08:21:08.964Z,1020.09
2023-02-16T08:22:08.955Z,1020.02
2023-02-16T08:23:08.961Z,1020.01
2023-02-16T08:24:08.924Z,1020.02
2023-02-16T08:25:09.347Z,1020.11
2023-02-16T08:26:08.902Z,1020.10
2023-02-16T08:27:08.892Z,1020.09
2023-02-16T08:28:08.886Z,1020.17
2023-02-16T08:29:08.871Z,1020.17
2023-02-16T08:30:08.945Z,1020.23
2023-02-16T08:31:08.884Z,1020.21
2023-02-16T08:32:10.371Z,1020.23
2023-02-16T08:33:08.827Z,1020.20
2023-02-16T08:34:09.909Z,1020.16
2023-02-16T08:35:08.828Z,1020.17
2023-02-16T08:36:08.794Z,1020.14
2023-02-16T08:37:09.356Z,1020.16
2023-02-16T08:38:08.805Z,1020.13
2023-02-16T08:39:08.779Z,1020.10
2023-02-16T08:40:08.959Z,1020.15
2023-02-16T08:41:09.227Z,1020.14
2023-02-16T08:42:08.939Z,1020.13
2023-02-16T08:43:08.737Z,1020.12
2023-02-16T08:44:08.725Z,1020.10
2023-02-16T08:45:09.658Z,1020.10
2023-02-16T08:46:08.774Z,1020.10
2023-02-16T08:47:08.674Z,1020.10
2023-02-16T08:48:08.711Z,1020.07
2023-02-16T08:49:08.644Z,1020.08
2023-02-16T08:50:08.642Z,1020.11
2023-02-16T08:51:08.615Z,1020.10
2023-02-16T08:52:08.645Z,1020.13
2023-02-16T08:53:08.613Z,1020.15
2023-02-16T08:54:08.609Z,1020.13
2023-02-16T08:55:08.584Z,1020.12
2023-02-16T08:56:08.564Z,1020.11
2023-02-16T08:57:08.612Z,1020.11
2023-02-16T08:58:08.562Z,1020.04
2023-02-16T08:59:08.598Z,1020.08
2023-02-16T09:00:09.988Z,1020.11
2023-02-16T09:01:08.830Z,1020.03
2023-02-16T09:02:08.590Z,1020.04
2023-02-16T09:03:08.508Z,1020.08
2023-02-16T09:04:08.984Z,1020.07
2023-02-16T09:05:08.848Z,1020.10
2023-02-16T09:06:09.347Z,1020.09
2023-02-16T09:07:08.447Z,1020.09
2023-02-16T09:08:08.456Z,1020.06
2023-02-16T09:09:08.452Z,1020.03
2023-02-16T09:10:08.416Z,1020.06
2023-02-16T09:11:08.396Z,1020.05
2023-02-16T09:12:08.408Z,1020.04
2023-02-16T09:13:08.384Z,1020.03
2023-02-16T09:14:08.356Z,1020.06
2023-02-16T09:15:08.416Z,1020.10
2023-02-16T09:16:08.334Z,1020.05
2023-02-16T09:17:08.412Z,1020.01
2023-02-16T09:18:08.350Z,1020.06
2023-02-16T09:19:08.351Z,1020.08
2023-02-16T09:20:08.326Z,1020.08
2023-02-16T09:21:08.313Z,1020.15
2023-02-16T09:22:08.278Z,1020.08
2023-02-16T09:23:08.261Z,1020.12
2023-02-16T09:24:08.248Z,1020.14
2023-02-16T09:25:08.269Z,1020.16
2023-02-16T09:26:08.235Z,1020.14
2023-02-16T09:27:08.209Z,1020.24
2023-02-16T09:28:08.223Z,1020.19
2023-02-16T09:29:08.218Z,1020.21
2023-02-16T09:30:08.254Z,1020.20
2023-02-16T09:31:08.340Z,1020.14
2023-02-16T09:32:08.173Z,1020.20
2023-02-16T09:33:08.142Z,1020.19
2023-02-16T09:34:08.152Z,1020.20
2023-02-16T09:35:08.130Z,1020.29
2023-02-16T09:36:08.126Z,1020.25
2023-02-16T09:37:08.121Z,1020.34
2023-02-16T09:38:08.097Z,1020.30
2023-02-16T09:39:08.106Z,1020.32
2023-02-16T09:40:08.103Z,1020.34
2023-02-16T09:41:09.465Z,1020.34
2023-02-16T09:42:08.052Z,1020.30
2023-02-16T09:43:08.043Z,1020.32
2023-02-16T09:44:08.032Z,1020.34
2023-02-16T09:45:08.004Z,1020.42
2023-02-16T09:46:08.141Z,1020.45
2023-02-16T09:47:07.987Z,1020.47
2023-02-16T09:48:07.975Z,1020.48
2023-02-16T09:49:07.981Z,1020.42
2023-02-16T09:50:07.961Z,1020.50
2023-02-16T09:51:07.999Z,1020.55
2023-02-16T09:52:07.934Z,1020.51
2023-02-16T09:53:09.364Z,1020.57
2023-02-16T09:54:07.916Z,1020.60
2023-02-16T09:55:07.905Z,1020.60
2023-02-16T09:56:07.911Z,1020.58
2023-02-16T09:57:07.915Z,1020.61
2023-02-16T09:58:08.659Z,1020.68
2023-02-16T09:59:09.515Z,1020.63
2023-02-16T10:00:08.076Z,1020.69
2023-02-16T10:01:07.878Z,1020.61
2023-02-16T10:02:07.911Z,1020.66
2023-02-16T10:03:08.093Z,1020.70
2023-02-16T10:04:07.823Z,1020.66
2023-02-16T10:05:07.787Z,1020.64
2023-02-16T10:06:07.836Z,1020.62
2023-02-16T10:07:09.216Z,1020.59
2023-02-16T10:08:07.821Z,1020.64
2023-02-16T10:09:08.744Z,1020.57
2023-02-16T10:10:08.074Z,1020.51
2023-02-16T10:11:07.722Z,1020.51
2023-02-16T10:12:07.732Z,1020.49
2023-02-16T10:13:07.721Z,1020.54
2023-02-16T10:14:07.833Z,1020.50
2023-02-16T10:15:07.685Z,1020.43
2023-02-16T10:16:07.762Z,1020.44
2023-02-16T10:17:07.680Z,1020.44
2023-02-16T10:18:07.647Z,1020.42
2023-02-16T10:19:07.642Z,1020.43
2023-02-16T10:20:07.797Z,1020.42
2023-02-16T10:21:07.800Z,1020.45
2023-02-16T10:22:07.615Z,1020.40
2023-02-16T10:23:07.739Z,1020.39
2023-02-16T10:24:07.616Z,1020.40
2023-02-16T10:25:07.576Z,1020.45
2023-02-16T10:26:07.570Z,1020.46
2023-02-16T10:27:07.582Z,1020.46
2023-02-16T10:28:07.559Z,1020.46
2023-02-16T10:29:07.538Z,1020.51
2023-02-16T10:30:07.528Z,1020.52
2023-02-16T10:31:08.012Z,1020.54
2023-02-16T10:32:07.553Z,1020.51
2023-02-16T10:33:07.480Z,1020.56
2023-02-16T10:34:07.481Z,1020.56
2023-02-16T10:35:07.484Z,1020.55
2023-02-16T10:36:07.491Z,1020.57
2023-02-16T10:37:07.504Z,1020.50
2023-02-16T10:38:07.422Z,1020.58
2023-02-16T10:39:07.451Z,1020.59
2023-02-16T10:40:07.822Z,1020.60
2023-02-16T10:41:07.390Z,1020.57
2023-02-16T10:42:07.396Z,1020.54
2023-02-16T10:43:07.368Z,1020.61
2023-02-16T10:44:07.369Z,1020.49
2023-02-16T10:45:07.365Z,1020.56
2023-02-16T10:46:07.400Z,1020.48
2023-02-16T10:47:07.322Z,1020.50
2023-02-16T10:48:07.307Z,1020.45
2023-02-16T10:49:07.315Z,1020.49
2023-02-16T10:50:07.318Z,1020.46
2023-02-16T10:51:07.485Z,1020.46
2023-02-16T10:52:07.265Z,1020.49
2023-02-16T10:53:07.284Z,1020.42
2023-02-16T10:54:07.266Z,1020.39
2023-02-16T10:55:07.279Z,1020.46
2023-02-16T10:56:07.217Z,1020.45
2023-02-16T10:57:07.219Z,1020.47
2023-02-16T10:58:07.207Z,1020.47
2023-02-16T10:59:07.242Z,1020.44
2023-02-16T11:00:07.186Z,1020.42
2023-02-16T11:01:07.197Z,1020.38
2023-02-16T11:02:07.170Z,1020.39
2023-02-16T11:03:07.153Z,1020.35
2023-02-16T11:04:07.232Z,1020.35
2023-02-16T11:05:07.135Z,1020.35
2023-02-16T11:06:07.192Z,1020.30
2023-02-16T11:07:07.134Z,1020.29
2023-02-16T11:08:07.125Z,1020.28
2023-02-16T11:09:07.096Z,1020.32
2023-02-16T11:10:07.099Z,1020.29
2023-02-16T11:11:07.083Z,1020.22
2023-02-16T11:12:07.056Z,1020.18
2023-02-16T11:13:07.049Z,1020.19
2023-02-16T11:14:09.082Z,1020.20
2023-02-16T11:15:07.037Z,1020.24
2023-02-16T11:16:07.087Z,1020.28
2023-02-16T11:17:07.964Z,1020.20
2023-02-16T11:18:07.195Z,1020.26
2023-02-16T11:19:07.012Z,1020.14
2023-02-16T11:20:07.143Z,1020.12
2023-02-16T11:21:07.260Z,1020.09
2023-02-16T11:22:06.946Z,1020.04
2023-02-16T11:23:06.927Z,1019.95
2023-02-16T11:24:06.915Z,1019.98
2023-02-16T11:25:09.030Z,1019.93
2023-02-16T11:26:06.966Z,1019.96
2023-02-16T11:27:06.893Z,1019.89
2023-02-16T11:28:06.909Z,1019.85
2023-02-16T11:29:06.867Z,1019.82
2023-02-16T11:30:06.876Z,1019.84
2023-02-16T11:31:07.211Z,1019.84
2023-02-16T11:32:06.912Z,1019.88
2023-02-16T11:33:06.815Z,1019.83
2023-02-16T11:34:06.812Z,1019.78
2023-02-16T11:35:06.833Z,1019.84
2023-02-16T11:36:06.782Z,1019.87
2023-02-16T11:37:06.799Z,1019.96
2023-02-16T11:38:06.774Z,1019.85
2023-02-16T11:39:06.775Z,1019.87
2023-02-16T11:40:06.741Z,1019.94
2023-02-16T11:41:07.055Z,1019.92
2023-02-16T11:42:06.751Z,1019.93
2023-02-16T11:43:06.698Z,1019.96
2023-02-16T11:44:06.689Z,1019.98
2023-02-16T11:45:06.717Z,1019.96
2023-02-16T11:46:07.005Z,1019.96
2023-02-16T11:47:06.659Z,1019.96
2023-02-16T11:48:06.629Z,1019.92
2023-02-16T11:49:06.631Z,1019.81
2023-02-16T11:50:06.636Z,1019.82
2023-02-16T11:51:06.876Z,1019.87
2023-02-16T11:52:06.611Z,1019.89
2023-02-16T11:53:06.593Z,1019.90
2023-02-16T11:54:06.606Z,1019.90
2023-02-16T11:55:06.559Z,1019.93
2023-02-16T11:56:06.660Z,1019.82
2023-02-16T11:57:06.565Z,1019.87
2023-02-16T11:58:06.526Z,1019.80
2023-02-16T11:59:07.300Z,1019.69
2023-02-16T12:00:07.162Z,1019.67
2023-02-16T12:01:07.970Z,1019.68
2023-02-16T12:02:06.792Z,1019.76
2023-02-16T12:03:06.862Z,1019.69
2023-02-16T12:04:06.500Z,1019.75
2023-02-16T12:05:06.492Z,1019.80